createdAt,value
2016-03-28T12:34:00.567Z,2190
2016-03-28T12:34:13.724Z,2165
2016-03-28T12:34:27.020Z,2300
2016-03-28T12:34:40.398Z,2180
2016-03-28T12:34:53.680Z,2340
2016-03-28T12:35:07.055Z,2480
2016-03-28T12:35:20.180Z,2770
2016-03-28T12:35:33.461Z,3305
2016-03-28T12:35:46.745Z,3465
2016-03-28T12:36:00.058Z,3360
2016-03-28T12:36:13.323Z,2960
2016-03-28T12:36:26.605Z,3310
2016-03-28T12:36:39.889Z,3275
2016-03-28T12:36:53.170Z,3585
2016-03-28T12:37:06.436Z,3570
2016-03-28T12:37:19.717Z,3735
2016-03-28T12:37:32.998Z,3825
2016-03-28T12:37:46.297Z,4205
2016-03-28T12:37:59.594Z,4130
2016-03-28T12:38:13.094Z,4355
2016-03-28T12:38:26.375Z,4330
2016-03-28T12:38:39.675Z,4410
2016-03-28T12:38:52.956Z,4395
2016-03-28T12:39:06.253Z,3690
2016-03-28T12:39:19.550Z,3770
2016-03-28T12:39:32.863Z,4020
2016-03-28T12:39:46.146Z,4210
2016-03-28T12:39:59.427Z,4405
2016-03-28T12:40:12.693Z,4325
2016-03-28T12:40:26.005Z,4195
2016-03-28T12:40:39.336Z,4060
2016-03-28T12:40:52.618Z,3970
2016-03-28T12:41:05.883Z,3935
2016-03-28T12:41:19.180Z,3965
2016-03-28T12:41:32.493Z,3960
2016-03-28T12:41:45.883Z,3940
2016-03-28T12:41:59.180Z,3915
2016-03-28T12:42:12.446Z,3920
2016-03-28T12:42:25.727Z,3905
2016-03-28T12:42:39.013Z,3890
2016-03-28T12:42:52.294Z,3865
2016-03-28T12:43:05.575Z,3870
2016-03-28T12:43:18.841Z,3510
2016-03-28T12:43:32.138Z,3465
2016-03-28T12:43:45.425Z,3090
2016-03-28T12:43:58.706Z,2980
2016-03-28T12:44:11.987Z,3505
2016-03-28T12:44:25.268Z,3625
2016-03-28T12:44:38.565Z,3680
2016-03-28T12:44:51.850Z,3190
2016-03-28T12:45:05.131Z,2760
2016-03-28T12:45:18.413Z,2455
2016-03-28T12:45:31.538Z,2535
2016-03-28T12:45:44.809Z,2325
2016-03-28T12:45:58.090Z,2375
2016-03-28T12:46:11.387Z,2535
2016-03-28T12:46:24.653Z,2315
2016-03-28T12:46:37.934Z,2405
2016-03-28T12:46:51.206Z,3030
2016-03-28T12:47:04.472Z,2855
2016-03-28T12:47:17.769Z,3050
2016-03-28T12:47:31.050Z,2915
2016-03-28T12:47:44.329Z,2715
2016-03-28T12:47:57.626Z,2695
2016-03-28T12:48:10.907Z,2165
2016-03-28T12:48:24.173Z,2265
2016-03-28T12:48:37.470Z,2635
2016-03-28T12:48:50.749Z,3055
2016-03-28T12:49:04.030Z,3495
2016-03-28T12:49:17.327Z,3630
2016-03-28T12:49:30.608Z,3675
2016-03-28T12:49:43.889Z,3935
2016-03-28T12:49:57.170Z,3670
2016-03-28T12:50:10.451Z,3455
2016-03-28T12:50:23.764Z,3750
2016-03-28T12:50:37.029Z,4330
2016-03-28T12:50:50.308Z,3785
2016-03-28T12:51:03.604Z,3935
2016-03-28T12:51:16.886Z,3370
2016-03-28T12:51:30.198Z,3840
2016-03-28T12:51:43.478Z,3305
2016-03-28T12:51:56.760Z,3980
2016-03-28T12:52:10.041Z,3115
2016-03-28T12:52:23.322Z,3690
2016-03-28T12:52:36.635Z,3480
2016-03-28T12:52:49.870Z,3700
2016-03-28T12:53:03.120Z,3605
2016-03-28T12:53:16.386Z,3135
2016-03-28T12:53:29.667Z,2630
2016-03-28T12:53:42.948Z,2800
2016-03-28T12:53:56.339Z,2480
2016-03-28T12:54:09.604Z,2585
2016-03-28T12:54:22.886Z,2740
2016-03-28T12:54:36.151Z,2515
2016-03-28T12:54:49.277Z,2935
2016-03-28T12:55:02.543Z,3280
2016-03-28T12:55:15.840Z,3950
2016-03-28T12:55:29.137Z,2695
2016-03-28T12:55:42.420Z,3110
2016-03-28T12:55:55.701Z,2885
2016-03-28T12:56:08.967Z,2840
2016-03-28T12:56:22.264Z,2370
2016-03-28T12:56:35.561Z,2475
2016-03-28T12:56:48.826Z,2765
2016-03-28T12:57:02.107Z,2540
2016-03-28T12:57:15.420Z,2320
2016-03-28T12:57:28.717Z,2285
2016-03-28T12:57:42.016Z,2250
2016-03-28T12:57:55.281Z,2230
2016-03-28T12:58:08.563Z,2205
2016-03-28T12:58:22.063Z,2185
2016-03-28T12:58:35.359Z,2135
2016-03-28T12:58:48.644Z,2085
2016-03-28T12:59:01.941Z,2000
2016-03-28T12:59:15.237Z,1960
2016-03-28T12:59:28.519Z,1935
2016-03-28T12:59:41.819Z,1940
2016-03-28T12:59:55.100Z,1940
2016-03-28T13:00:08.381Z,1940
2016-03-28T13:00:21.662Z,1930
2016-03-28T13:00:34.944Z,1930
2016-03-28T13:00:48.242Z,1945
2016-03-28T13:01:01.524Z,1970
2016-03-28T13:01:14.805Z,2010
2016-03-28T13:01:28.071Z,2070
2016-03-28T13:01:41.354Z,2190
2016-03-28T13:01:54.682Z,2155
2016-03-28T13:02:07.979Z,2120
2016-03-28T13:02:21.260Z,2100
2016-03-28T13:02:34.541Z,2065
2016-03-28T13:02:47.826Z,2035
2016-03-28T13:03:01.107Z,1995
2016-03-28T13:03:14.388Z,1985
2016-03-28T13:03:27.669Z,1980
2016-03-28T13:03:40.968Z,2005
2016-03-28T13:03:54.249Z,2095
2016-03-28T13:04:07.531Z,1970
2016-03-28T13:04:20.796Z,1895
2016-03-28T13:04:34.078Z,1840
2016-03-28T13:04:47.376Z,1785
2016-03-28T13:05:00.658Z,1750
2016-03-28T13:05:13.939Z,1750
2016-03-28T13:05:27.251Z,1775
2016-03-28T13:05:40.533Z,1840
2016-03-28T13:05:53.817Z,1915
2016-03-28T13:06:07.114Z,1975
2016-03-28T13:06:20.379Z,2005
2016-03-28T13:06:33.661Z,1985
2016-03-28T13:06:46.960Z,1930
2016-03-28T13:07:00.256Z,1865
2016-03-28T13:07:13.522Z,1765
2016-03-28T13:07:26.788Z,1670
2016-03-28T13:07:40.085Z,1590
2016-03-28T13:07:53.259Z,1535
2016-03-28T13:08:06.541Z,1495
2016-03-28T13:08:19.666Z,1470
2016-03-28T13:08:32.947Z,1450
2016-03-28T13:08:46.261Z,1425
2016-03-28T13:08:59.543Z,1405
2016-03-28T13:09:12.824Z,1370
2016-03-28T13:09:26.105Z,1335
2016-03-28T13:09:39.386Z,1305
2016-03-28T13:09:52.686Z,1295
2016-03-28T13:10:05.968Z,1270
2016-03-28T13:10:19.249Z,1250
2016-03-28T13:10:32.530Z,1235
2016-03-28T13:10:45.814Z,1220
2016-03-28T13:10:59.096Z,1220
2016-03-28T13:11:12.392Z,1220
2016-03-28T13:11:25.502Z,1205
2016-03-28T13:11:38.799Z,1190
2016-03-28T13:11:52.098Z,1190
2016-03-28T13:12:05.379Z,1205
2016-03-28T13:12:18.660Z,1230
2016-03-28T13:12:31.926Z,1260
2016-03-28T13:12:45.210Z,1305
2016-03-28T13:12:58.491Z,1350
2016-03-28T13:13:11.788Z,1385
2016-03-28T13:13:25.054Z,1415
2016-03-28T13:13:38.319Z,1440
2016-03-28T13:13:51.604Z,1450
2016-03-28T13:14:04.885Z,1455
2016-03-28T13:14:18.150Z,1445
2016-03-28T13:14:31.432Z,1445
2016-03-28T13:14:44.731Z,1435
2016-03-28T13:14:58.012Z,1430
2016-03-28T13:15:11.293Z,1430
2016-03-28T13:15:24.590Z,1435
2016-03-28T13:15:37.887Z,1430
2016-03-28T13:15:51.030Z,1430
2016-03-28T13:16:04.155Z,1440
2016-03-28T13:16:17.437Z,1450
2016-03-28T13:16:30.718Z,1455
2016-03-28T13:16:44.018Z,1465
2016-03-28T13:16:57.283Z,1485
2016-03-28T13:17:10.565Z,1500
2016-03-28T13:17:23.846Z,1510
2016-03-28T13:17:37.158Z,1515
2016-03-28T13:17:50.426Z,1500
2016-03-28T13:18:03.723Z,1470
2016-03-28T13:18:17.004Z,1425
2016-03-28T13:18:30.301Z,1380
2016-03-28T13:18:43.585Z,1340
2016-03-28T13:18:56.867Z,1320
2016-03-28T13:19:10.148Z,1305
2016-03-28T13:19:23.429Z,1310
2016-03-28T13:19:36.726Z,1315
2016-03-28T13:19:49.995Z,1320
2016-03-28T13:20:03.260Z,1335
2016-03-28T13:20:16.541Z,1345
2016-03-28T13:20:29.823Z,1355
2016-03-28T13:20:43.123Z,1355
2016-03-28T13:20:56.404Z,1350
2016-03-28T13:21:09.669Z,1355
2016-03-28T13:21:22.951Z,1360
2016-03-28T13:21:36.248Z,1375
2016-03-28T13:21:49.546Z,1395
2016-03-28T13:22:02.828Z,1385
2016-03-28T13:22:16.109Z,1355
2016-03-28T13:22:29.250Z,1325
2016-03-28T13:22:42.549Z,1305
2016-03-28T13:22:55.831Z,1290
2016-03-28T13:23:09.159Z,1285
2016-03-28T13:23:22.487Z,1280
2016-03-28T13:23:35.768Z,1285
2016-03-28T13:23:49.067Z,1290
2016-03-28T13:24:02.364Z,1300
2016-03-28T13:24:15.489Z,1300
2016-03-28T13:24:28.786Z,1295
2016-03-28T13:24:42.070Z,1300
2016-03-28T13:24:55.351Z,1300
2016-03-28T13:25:08.633Z,1295
2016-03-28T13:25:21.914Z,1275
2016-03-28T13:25:35.195Z,1270
2016-03-28T13:25:48.448Z,1255
2016-03-28T13:26:01.714Z,1250
2016-03-28T13:26:14.995Z,1245
2016-03-28T13:26:28.245Z,1235
2016-03-28T13:26:41.513Z,1220
2016-03-28T13:26:54.778Z,1205
2016-03-28T13:27:08.059Z,1185
2016-03-28T13:27:21.341Z,1175
2016-03-28T13:27:34.622Z,1160
2016-03-28T13:27:47.891Z,1150
2016-03-28T13:28:01.172Z,1130
2016-03-28T13:28:14.453Z,1115
2016-03-28T13:28:27.719Z,1090
2016-03-28T13:28:41.003Z,1055
2016-03-28T13:28:54.315Z,1025
2016-03-28T13:29:07.597Z,1000
2016-03-28T13:29:20.862Z,965
2016-03-28T13:29:34.144Z,955
2016-03-28T13:29:47.442Z,970
2016-03-28T13:30:00.708Z,995
2016-03-28T13:30:13.989Z,1030
2016-03-28T13:30:27.271Z,1060
2016-03-28T13:30:40.552Z,1090
2016-03-28T13:30:53.852Z,1120
2016-03-28T13:31:07.149Z,1135
2016-03-28T13:31:20.414Z,1150
2016-03-28T13:31:33.711Z,1160
2016-03-28T13:31:46.995Z,1160
2016-03-28T13:32:00.277Z,1170
2016-03-28T13:32:13.558Z,1180
2016-03-28T13:32:26.839Z,1180
2016-03-28T13:32:40.152Z,1180
2016-03-28T13:32:53.435Z,1140
2016-03-28T13:33:06.716Z,1100
2016-03-28T13:33:19.982Z,1070
2016-03-28T13:33:33.279Z,1055
2016-03-28T13:33:46.578Z,1060
2016-03-28T13:33:59.860Z,1085
2016-03-28T13:34:13.328Z,1110
2016-03-28T13:34:26.625Z,1140
2016-03-28T13:34:39.907Z,1185
2016-03-28T13:34:53.191Z,1235
2016-03-28T13:35:05.753Z,1295
2016-03-28T13:35:19.050Z,1360
2016-03-28T13:35:32.347Z,1425
2016-03-28T13:35:45.631Z,1465
2016-03-28T13:35:58.897Z,1485
2016-03-28T13:36:12.194Z,1495
2016-03-28T13:36:25.522Z,1480
2016-03-28T13:36:38.788Z,1465
2016-03-28T13:36:52.071Z,1450
2016-03-28T13:37:05.352Z,1420
2016-03-28T13:37:18.649Z,1395
2016-03-28T13:37:31.930Z,1380
2016-03-28T13:37:45.230Z,1365
2016-03-28T13:37:58.527Z,1340
2016-03-28T13:38:11.949Z,1320
2016-03-28T13:38:25.152Z,1290
2016-03-28T13:38:38.433Z,1255
2016-03-28T13:38:51.717Z,1235
2016-03-28T13:39:04.999Z,1220
2016-03-28T13:39:18.280Z,1215
2016-03-28T13:39:31.577Z,1220
2016-03-28T13:39:44.844Z,1210
2016-03-28T13:39:58.141Z,1200
2016-03-28T13:40:11.407Z,1195
2016-03-28T13:40:24.704Z,1200
2016-03-28T13:40:38.016Z,1205
2016-03-28T13:40:51.285Z,1220
2016-03-28T13:41:04.566Z,1225
2016-03-28T13:41:17.847Z,1245
2016-03-28T13:41:31.129Z,1250
2016-03-28T13:41:44.413Z,1265
2016-03-28T13:41:57.882Z,1285
2016-03-28T13:42:12.819Z,1305
2016-03-28T13:42:26.116Z,1325
2016-03-28T13:42:39.429Z,1320
2016-03-28T13:42:52.696Z,1310
2016-03-28T13:43:05.977Z,1295
2016-03-28T13:43:19.259Z,1300
2016-03-28T13:43:32.587Z,1300
2016-03-28T13:43:45.887Z,1305
2016-03-28T13:43:59.184Z,1320
2016-03-28T13:44:12.449Z,1340
2016-03-28T13:44:25.746Z,1325
2016-03-28T13:44:39.043Z,1315
2016-03-28T13:44:52.312Z,1295
2016-03-28T13:45:05.608Z,1280
2016-03-28T13:45:18.874Z,1280
2016-03-28T13:45:32.187Z,1290
2016-03-28T13:45:45.486Z,1310
2016-03-28T13:45:58.783Z,1320
2016-03-28T13:46:12.065Z,1325
2016-03-28T13:46:25.346Z,1325
2016-03-28T13:46:38.658Z,1310
2016-03-28T13:46:51.942Z,1285
2016-03-28T13:47:05.223Z,1255
2016-03-28T13:47:18.504Z,1235
2016-03-28T13:47:31.817Z,1210
2016-03-28T13:47:45.101Z,1185
2016-03-28T13:47:58.366Z,1175
2016-03-28T13:48:11.648Z,1165
2016-03-28T13:48:24.945Z,1165
2016-03-28T13:48:38.210Z,1170
2016-03-28T13:48:51.493Z,1180
2016-03-28T13:49:04.775Z,1185
2016-03-28T13:49:18.056Z,1185
2016-03-28T13:49:31.368Z,1185
2016-03-28T13:49:44.653Z,1175
2016-03-28T13:49:57.778Z,1175
2016-03-28T13:50:11.043Z,1175
2016-03-28T13:50:24.356Z,1185
2016-03-28T13:50:37.637Z,1210
2016-03-28T13:50:50.906Z,1235
2016-03-28T13:51:04.203Z,1255
2016-03-28T13:51:17.484Z,1280
2016-03-28T13:51:30.796Z,1305
2016-03-28T13:51:44.095Z,1305
2016-03-28T13:51:57.392Z,1290
2016-03-28T13:52:10.673Z,1280
2016-03-28T13:52:23.970Z,1285
2016-03-28T13:52:37.298Z,1285
2016-03-28T13:52:50.584Z,1265
2016-03-28T13:53:03.865Z,1250
2016-03-28T13:53:17.146Z,1225
2016-03-28T13:53:30.459Z,1215
2016-03-28T13:53:43.695Z,1190
2016-03-28T13:53:57.179Z,1185
2016-03-28T13:54:10.461Z,1175
2016-03-28T13:54:23.742Z,1170
2016-03-28T13:54:37.023Z,1165
2016-03-28T13:54:50.323Z,1165
2016-03-28T13:55:03.620Z,1175
2016-03-28T13:55:16.917Z,1170
2016-03-28T13:55:30.214Z,1170
2016-03-28T13:55:43.482Z,1160
2016-03-28T13:55:56.607Z,1150
2016-03-28T13:56:09.904Z,1135
2016-03-28T13:56:23.185Z,1120
2016-03-28T13:56:36.467Z,1100
2016-03-28T13:56:49.750Z,1090
2016-03-28T13:57:03.047Z,1065
2016-03-28T13:57:16.328Z,1050
2016-03-28T13:57:29.609Z,1030
2016-03-28T13:57:42.893Z,1010
2016-03-28T13:57:56.190Z,990
2016-03-28T13:58:09.456Z,980
2016-03-28T13:58:22.737Z,965
2016-03-28T13:58:35.987Z,950
2016-03-28T13:58:49.270Z,935
2016-03-28T13:59:02.552Z,925
2016-03-28T13:59:15.880Z,920
2016-03-28T13:59:29.161Z,915
2016-03-28T13:59:42.430Z,910
2016-03-28T13:59:55.711Z,920
2016-03-28T14:00:09.060Z,930
2016-03-28T14:00:22.341Z,950
2016-03-28T14:00:35.622Z,970
2016-03-28T14:00:48.921Z,990
2016-03-28T14:01:02.202Z,1000
2016-03-28T14:01:15.483Z,1010
2016-03-28T14:01:28.765Z,1025
2016-03-28T14:01:42.080Z,1025
2016-03-28T14:01:55.361Z,1030
2016-03-28T14:02:08.658Z,1035
2016-03-28T14:02:21.940Z,1030
2016-03-28T14:02:35.252Z,1015
2016-03-28T14:02:48.552Z,985
2016-03-28T14:03:01.833Z,965
2016-03-28T14:03:15.114Z,950
2016-03-28T14:03:28.411Z,950
2016-03-28T14:03:41.726Z,950
2016-03-28T14:03:55.007Z,945
2016-03-28T14:04:08.304Z,940
2016-03-28T14:04:21.601Z,930
2016-03-28T14:04:34.913Z,925
2016-03-28T14:04:48.213Z,915
2016-03-28T14:05:01.494Z,905
2016-03-28T14:05:14.776Z,900
2016-03-28T14:05:28.073Z,890
2016-03-28T14:05:41.388Z,885
2016-03-28T14:05:54.669Z,880
2016-03-28T14:06:07.966Z,880
2016-03-28T14:06:21.247Z,870
2016-03-28T14:06:34.529Z,860
2016-03-28T14:06:47.829Z,850
2016-03-28T14:07:01.126Z,830
2016-03-28T14:07:14.408Z,820
2016-03-28T14:07:27.689Z,810
2016-03-28T14:07:41.017Z,800
2016-03-28T14:07:54.301Z,800
2016-03-28T14:08:07.707Z,795
2016-03-28T14:08:21.286Z,790
2016-03-28T14:08:34.567Z,780
2016-03-28T14:08:47.694Z,790
2016-03-28T14:09:00.991Z,785
2016-03-28T14:09:14.256Z,800
2016-03-28T14:09:27.553Z,810
2016-03-28T14:09:41.069Z,825
2016-03-28T14:09:54.353Z,830
2016-03-28T14:10:07.478Z,845
2016-03-28T14:10:20.806Z,865
2016-03-28T14:10:34.087Z,880
2016-03-28T14:10:47.355Z,890
2016-03-28T14:11:00.652Z,890
2016-03-28T14:11:13.933Z,885
2016-03-28T14:11:27.230Z,880
2016-03-28T14:11:40.511Z,875
2016-03-28T14:11:53.796Z,875
2016-03-28T14:12:07.077Z,870
2016-03-28T14:12:20.405Z,870
2016-03-28T14:12:33.686Z,875
2016-03-28T14:12:46.955Z,875
2016-03-28T14:13:00.236Z,860
2016-03-28T14:13:13.377Z,845
2016-03-28T14:13:26.642Z,830
2016-03-28T14:13:39.924Z,820
2016-03-28T14:13:53.223Z,820
2016-03-28T14:14:06.489Z,815
2016-03-28T14:14:19.770Z,810
2016-03-28T14:14:33.083Z,805
2016-03-28T14:14:46.366Z,805
2016-03-28T14:14:59.663Z,790
2016-03-28T14:15:12.944Z,775
2016-03-28T14:15:26.241Z,765
2016-03-28T14:15:39.522Z,760
2016-03-28T14:15:52.322Z,760
2016-03-28T14:16:05.588Z,760
2016-03-28T14:16:18.885Z,765
2016-03-28T14:16:32.166Z,760
2016-03-28T14:16:45.450Z,750
2016-03-28T14:16:58.716Z,740
2016-03-28T14:17:12.013Z,730
2016-03-28T14:17:25.294Z,725
2016-03-28T14:17:38.575Z,715
2016-03-28T14:17:51.858Z,720
2016-03-28T14:18:05.140Z,725
2016-03-28T14:18:18.421Z,725
2016-03-28T14:18:31.702Z,715
2016-03-28T14:18:45.002Z,705
2016-03-28T14:18:58.283Z,670
2016-03-28T14:19:11.565Z,635
2016-03-28T14:19:24.846Z,595
2016-03-28T14:19:38.127Z,565
2016-03-28T14:19:51.443Z,550
2016-03-28T14:20:04.739Z,545
2016-03-28T14:20:18.005Z,540
2016-03-28T14:20:31.286Z,545
2016-03-28T14:20:44.571Z,550
2016-03-28T14:20:57.867Z,555
2016-03-28T14:21:11.164Z,560
2016-03-28T14:21:24.446Z,560
2016-03-28T14:21:37.727Z,570
2016-03-28T14:21:51.027Z,570
2016-03-28T14:22:04.324Z,575
2016-03-28T14:22:17.605Z,575
2016-03-28T14:22:30.886Z,575
2016-03-28T14:22:44.185Z,575
2016-03-28T14:22:57.466Z,565
2016-03-28T14:23:10.810Z,560
2016-03-28T14:23:24.122Z,560
2016-03-28T14:23:37.388Z,560
2016-03-28T14:23:50.672Z,560
2016-03-28T14:24:03.969Z,565
2016-03-28T14:24:17.250Z,575
2016-03-28T14:24:30.547Z,575
2016-03-28T14:24:43.847Z,585
2016-03-28T14:24:57.144Z,595
2016-03-28T14:25:10.410Z,590
2016-03-28T14:25:23.722Z,595
2016-03-28T14:25:37.003Z,600
2016-03-28T14:25:50.130Z,605
2016-03-28T14:26:03.412Z,620
2016-03-28T14:26:16.724Z,640
2016-03-28T14:26:30.005Z,670
2016-03-28T14:26:43.302Z,695
2016-03-28T14:26:56.618Z,725
2016-03-28T14:27:09.930Z,750
2016-03-28T14:27:23.227Z,770
2016-03-28T14:27:36.508Z,790
2016-03-28T14:27:49.808Z,805
2016-03-28T14:28:03.090Z,820
2016-03-28T14:28:16.386Z,825
2016-03-28T14:28:29.683Z,835
2016-03-28T14:28:42.965Z,860
2016-03-28T14:28:56.248Z,875
2016-03-28T14:29:09.545Z,910
2016-03-28T14:29:22.842Z,945
2016-03-28T14:29:36.092Z,1000
2016-03-28T14:29:49.376Z,1065
2016-03-28T14:30:01.907Z,1140
2016-03-28T14:30:15.188Z,1220
2016-03-28T14:30:28.454Z,1265
2016-03-28T14:30:41.735Z,1320
2016-03-28T14:30:55.035Z,1375
2016-03-28T14:31:08.316Z,1435
2016-03-28T14:31:21.613Z,1455
2016-03-28T14:31:34.894Z,1485
2016-03-28T14:31:48.162Z,1500
2016-03-28T14:32:01.475Z,1485
2016-03-28T14:32:14.756Z,1455
2016-03-28T14:32:28.068Z,1410
2016-03-28T14:32:41.350Z,1350
2016-03-28T14:32:54.649Z,1300
2016-03-28T14:33:07.946Z,1250
2016-03-28T14:33:21.228Z,1245
2016-03-28T14:33:34.493Z,1220
2016-03-28T14:33:47.777Z,1200
2016-03-28T14:34:01.059Z,1215
2016-03-28T14:34:14.324Z,1235
2016-03-28T14:34:27.606Z,1245
2016-03-28T14:34:40.902Z,1255
2016-03-28T14:34:54.201Z,1255
2016-03-28T14:35:07.483Z,1240
2016-03-28T14:35:20.764Z,1230
2016-03-28T14:35:34.061Z,1225
2016-03-28T14:35:47.361Z,1210
2016-03-28T14:36:00.657Z,1200
2016-03-28T14:36:13.954Z,1175
2016-03-28T14:36:27.220Z,1150
2016-03-28T14:36:40.532Z,1135
2016-03-28T14:36:53.832Z,1130
2016-03-28T14:37:07.114Z,1120
2016-03-28T14:37:20.395Z,1105
2016-03-28T14:37:33.676Z,1085
2016-03-28T14:37:46.960Z,1055
2016-03-28T14:38:00.257Z,1015
2016-03-28T14:38:13.570Z,960
2016-03-28T14:38:27.163Z,880
2016-03-28T14:38:40.538Z,815
2016-03-28T14:38:53.869Z,760
2016-03-28T14:39:07.150Z,710
2016-03-28T14:39:20.447Z,665
2016-03-28T14:39:33.728Z,635
2016-03-28T14:39:47.028Z,605
2016-03-28T14:40:00.184Z,590
2016-03-28T14:40:13.450Z,585
2016-03-28T14:40:26.747Z,585
2016-03-28T14:40:40.075Z,590
2016-03-28T14:40:53.359Z,595
2016-03-28T14:41:06.625Z,600
2016-03-28T14:41:19.906Z,605
2016-03-28T14:41:33.218Z,610
2016-03-28T14:41:46.486Z,615
2016-03-28T14:41:59.783Z,620
2016-03-28T14:42:13.048Z,625
2016-03-28T14:42:26.345Z,635
2016-03-28T14:42:39.642Z,650
2016-03-28T14:42:52.926Z,665
2016-03-28T14:43:06.239Z,685
2016-03-28T14:43:19.505Z,705
2016-03-28T14:43:32.786Z,720
2016-03-28T14:43:46.086Z,735
2016-03-28T14:43:59.383Z,755
2016-03-28T14:44:12.679Z,780
2016-03-28T14:44:25.804Z,790
2016-03-28T14:44:39.148Z,785
2016-03-28T14:44:52.447Z,775
2016-03-28T14:45:05.744Z,765
2016-03-28T14:45:19.025Z,750
2016-03-28T14:45:32.306Z,735
2016-03-28T14:45:45.591Z,730
2016-03-28T14:45:58.731Z,720
2016-03-28T14:46:12.013Z,720
2016-03-28T14:46:25.294Z,730
2016-03-28T14:46:38.591Z,745
2016-03-28T14:46:51.875Z,775
2016-03-28T14:47:05.156Z,795
2016-03-28T14:47:18.437Z,820
2016-03-28T14:47:31.734Z,835
2016-03-28T14:47:45.018Z,850
2016-03-28T14:47:58.314Z,855
2016-03-28T14:48:11.611Z,845
2016-03-28T14:48:24.893Z,835
2016-03-28T14:48:38.174Z,805
2016-03-28T14:48:51.458Z,785
2016-03-28T14:49:04.739Z,765
2016-03-28T14:49:18.021Z,750
2016-03-28T14:49:31.317Z,735
2016-03-28T14:49:44.617Z,720
2016-03-28T14:49:57.899Z,705
2016-03-28T14:50:11.195Z,690
2016-03-28T14:50:24.477Z,680
2016-03-28T14:50:37.758Z,675
2016-03-28T14:50:51.072Z,680
2016-03-28T14:51:04.338Z,685
2016-03-28T14:51:17.651Z,685
2016-03-28T14:51:30.932Z,685
2016-03-28T14:51:44.229Z,685
2016-03-28T14:51:57.530Z,675
2016-03-28T14:52:10.826Z,670
2016-03-28T14:52:24.092Z,660
2016-03-28T14:52:37.389Z,650
2016-03-28T14:52:50.688Z,640
2016-03-28T14:53:03.969Z,625
2016-03-28T14:53:17.297Z,605
2016-03-28T14:53:31.157Z,580
2016-03-28T14:53:44.453Z,555
2016-03-28T14:53:57.753Z,525
2016-03-28T14:54:11.035Z,500
2016-03-28T14:54:24.331Z,475
2016-03-28T14:54:37.628Z,455
2016-03-28T14:54:50.927Z,445
2016-03-28T14:55:04.224Z,435
2016-03-28T14:55:17.490Z,425
2016-03-28T14:55:30.787Z,415
2016-03-28T14:55:44.115Z,410
2016-03-28T14:55:57.415Z,405
2016-03-28T14:56:10.696Z,400
2016-03-28T14:56:23.993Z,400
2016-03-28T14:56:37.290Z,400
2016-03-28T14:56:50.574Z,410
2016-03-28T14:57:03.855Z,425
2016-03-28T14:57:17.136Z,440
2016-03-28T14:57:30.418Z,460
2016-03-28T14:57:43.714Z,465
2016-03-28T14:57:56.999Z,475
2016-03-28T14:58:10.280Z,480
2016-03-28T14:58:23.577Z,485
2016-03-28T14:58:36.858Z,490
2016-03-28T14:58:50.141Z,495
2016-03-28T14:59:03.438Z,500
2016-03-28T14:59:16.719Z,505
2016-03-28T14:59:30.016Z,525
2016-03-28T14:59:43.298Z,545
2016-03-28T14:59:56.597Z,565
2016-03-28T15:00:09.879Z,585
2016-03-28T15:00:23.176Z,615
2016-03-28T15:00:36.457Z,645
2016-03-28T15:00:49.725Z,690
2016-03-28T15:01:03.007Z,810
2016-03-28T15:01:16.288Z,890
2016-03-28T15:01:29.554Z,940
2016-03-28T15:01:42.819Z,970
2016-03-28T15:01:56.087Z,965
2016-03-28T15:02:09.368Z,920
2016-03-28T15:02:22.681Z,895
2016-03-28T15:02:35.977Z,870
2016-03-28T15:02:49.277Z,840
2016-03-28T15:03:02.559Z,810
2016-03-28T15:03:15.855Z,790
2016-03-28T15:03:29.168Z,780
2016-03-28T15:03:42.465Z,765
2016-03-28T15:03:55.748Z,745
2016-03-28T15:04:09.045Z,725
2016-03-28T15:04:22.342Z,700
2016-03-28T15:04:35.623Z,675
2016-03-28T15:04:48.767Z,660
2016-03-28T15:05:02.064Z,645
2016-03-28T15:05:15.360Z,635
2016-03-28T15:05:28.642Z,625
2016-03-28T15:05:41.907Z,615
2016-03-28T15:05:55.192Z,610
2016-03-28T15:06:08.504Z,610
2016-03-28T15:06:21.785Z,610
2016-03-28T15:06:35.067Z,605
2016-03-28T15:06:48.334Z,600
2016-03-28T15:07:01.506Z,595
2016-03-28T15:07:14.678Z,590
2016-03-28T15:07:27.959Z,580
2016-03-28T15:07:41.100Z,575
2016-03-28T15:07:54.384Z,560
2016-03-28T15:08:07.665Z,550
2016-03-28T15:08:21.103Z,540
2016-03-28T15:08:34.525Z,535
2016-03-28T15:08:47.809Z,525
2016-03-28T15:09:01.106Z,520
2016-03-28T15:09:14.325Z,515
2016-03-28T15:09:27.621Z,520
2016-03-28T15:09:40.918Z,525
2016-03-28T15:09:54.202Z,550
2016-03-28T15:10:07.483Z,575
2016-03-28T15:10:20.795Z,615
2016-03-28T15:10:34.061Z,650
2016-03-28T15:10:47.345Z,725
2016-03-28T15:11:00.642Z,720
2016-03-28T15:11:13.939Z,735
2016-03-28T15:11:27.220Z,760
2016-03-28T15:11:40.501Z,760
2016-03-28T15:11:53.801Z,760
2016-03-28T15:12:07.083Z,750
2016-03-28T15:12:20.223Z,725
2016-03-28T15:12:33.489Z,710
2016-03-28T15:12:46.770Z,705
2016-03-28T15:13:00.069Z,700
2016-03-28T15:13:13.366Z,700
2016-03-28T15:13:26.647Z,695
2016-03-28T15:13:39.913Z,695
2016-03-28T15:13:53.228Z,700
2016-03-28T15:14:06.509Z,690
2016-03-28T15:14:19.791Z,675
2016-03-28T15:14:33.088Z,660
2016-03-28T15:14:46.369Z,645
2016-03-28T15:14:59.669Z,620
2016-03-28T15:15:12.950Z,595
2016-03-28T15:15:26.231Z,575
2016-03-28T15:15:39.528Z,555
2016-03-28T15:15:52.812Z,540
2016-03-28T15:16:06.094Z,530
2016-03-28T15:16:19.390Z,520
2016-03-28T15:16:32.672Z,520
2016-03-28T15:16:45.953Z,515
2016-03-28T15:16:59.236Z,525
2016-03-28T15:17:12.517Z,535
2016-03-28T15:17:25.799Z,555
2016-03-28T15:17:39.096Z,565
2016-03-28T15:17:52.364Z,575
2016-03-28T15:18:05.661Z,580
2016-03-28T15:18:18.958Z,580
2016-03-28T15:18:32.239Z,585
2016-03-28T15:18:45.520Z,590
2016-03-28T15:18:58.805Z,595
2016-03-28T15:19:12.086Z,600
2016-03-28T15:19:25.367Z,600
2016-03-28T15:19:38.664Z,595
2016-03-28T15:19:51.947Z,585
2016-03-28T15:20:05.229Z,570
2016-03-28T15:20:18.525Z,555
2016-03-28T15:20:31.822Z,535
2016-03-28T15:20:45.135Z,510
2016-03-28T15:20:58.419Z,495
2016-03-28T15:21:11.700Z,475
2016-03-28T15:21:24.997Z,455
2016-03-28T15:21:38.278Z,430
2016-03-28T15:21:51.563Z,420
2016-03-28T15:22:04.844Z,395
2016-03-28T15:22:18.110Z,380
2016-03-28T15:22:31.406Z,365
2016-03-28T15:22:44.688Z,355
2016-03-28T15:22:57.987Z,355
2016-03-28T15:23:11.315Z,345
2016-03-28T15:23:24.877Z,345
2016-03-28T15:23:38.174Z,340
2016-03-28T15:23:51.458Z,340
2016-03-28T15:24:04.755Z,335
2016-03-28T15:24:18.036Z,335
2016-03-28T15:24:31.318Z,340
2016-03-28T15:24:44.615Z,345
2016-03-28T15:24:57.899Z,345
2016-03-28T15:25:11.180Z,355
2016-03-28T15:25:24.493Z,365
2016-03-28T15:25:37.774Z,380
2016-03-28T15:25:51.057Z,390
2016-03-28T15:26:04.182Z,400
2016-03-28T15:26:17.510Z,415
2016-03-28T15:26:30.776Z,420
2016-03-28T15:26:44.057Z,420
2016-03-28T15:26:57.341Z,420
2016-03-28T15:27:10.654Z,415
2016-03-28T15:27:23.935Z,405
2016-03-28T15:27:37.201Z,390
2016-03-28T15:27:50.501Z,380
2016-03-28T15:28:03.938Z,375
2016-03-28T15:28:17.235Z,370
2016-03-28T15:28:30.532Z,375
2016-03-28T15:28:43.797Z,385
2016-03-28T15:28:57.472Z,405
2016-03-28T15:29:10.769Z,420
2016-03-28T15:29:24.082Z,445
2016-03-28T15:29:37.410Z,475
2016-03-28T15:29:50.693Z,495
2016-03-28T15:30:03.990Z,525
2016-03-28T15:30:17.271Z,535
2016-03-28T15:30:30.552Z,540
2016-03-28T15:30:43.881Z,545
2016-03-28T15:30:57.165Z,550
2016-03-28T15:31:10.446Z,550
2016-03-28T15:31:23.727Z,555
2016-03-28T15:31:37.024Z,555
2016-03-28T15:31:50.293Z,550
2016-03-28T15:32:03.558Z,535
2016-03-28T15:32:16.824Z,520
2016-03-28T15:32:30.090Z,500
2016-03-28T15:32:43.590Z,485
2016-03-28T15:32:56.873Z,465
2016-03-28T15:33:10.154Z,445
2016-03-28T15:33:23.654Z,425
2016-03-28T15:33:36.935Z,410